createdAt,value
2018-12-04T00:02:07.531Z,2.90
2018-12-04T00:04:35.936Z,2.77
2018-12-04T00:07:04.300Z,1.53
2018-12-04T00:09:32.686Z,3.30
2018-12-04T00:12:01.074Z,3.13
2018-12-04T00:14:29.484Z,3.80
2018-12-04T00:16:57.842Z,1.20
2018-12-04T00:19:26.256Z,1.10
2018-12-04T00:21:54.612Z,1.57
2018-12-04T00:24:22.980Z,1.40
2018-12-04T00:26:51.372Z,2.77
2018-12-04T00:29:19.775Z,3.87
2018-12-04T00:31:48.125Z,1.60
2018-12-04T00:34:16.519Z,2.37
2018-12-04T00:36:44.866Z,2.07
2018-12-04T00:39:13.266Z,0.67
2018-12-04T00:41:41.627Z,1.93
2018-12-04T00:44:10.013Z,2.73
2018-12-04T00:46:38.401Z,2.83
2018-12-04T00:49:06.757Z,3.33
2018-12-04T00:51:35.171Z,3.13
2018-12-04T00:54:03.559Z,2.90
2018-12-04T00:56:32.007Z,3.50
2018-12-04T00:59:00.367Z,2.97
2018-12-04T01:01:28.737Z,2.77
2018-12-04T01:03:57.127Z,2.90
2018-12-04T01:06:25.485Z,1.27
2018-12-04T01:08:53.890Z,1.87
2018-12-04T01:11:22.268Z,2.33
2018-12-04T01:13:50.656Z,5.07
2018-12-04T01:16:19.001Z,5.17
2018-12-04T01:18:47.430Z,2.73
2018-12-04T01:21:15.829Z,2.33
2018-12-04T01:23:44.236Z,3.33
2018-12-04T01:26:12.645Z,3.87
2018-12-04T01:28:41.041Z,0.97
2018-12-04T01:31:09.399Z,3.10
2018-12-04T01:33:37.770Z,5.20
2018-12-04T01:36:06.171Z,2.13
2018-12-04T01:38:34.530Z,2.63
2018-12-04T01:41:02.930Z,1.10
2018-12-04T01:43:31.298Z,5.30
2018-12-04T01:45:59.649Z,2.67
2018-12-04T01:48:28.096Z,4.27
2018-12-04T01:50:56.449Z,2.07
2018-12-04T01:53:24.842Z,2.30
2018-12-04T01:55:53.203Z,1.07
2018-12-04T01:58:21.601Z,1.67
2018-12-04T02:00:49.961Z,3.53
2018-12-04T02:03:18.329Z,3.00
2018-12-04T02:05:46.737Z,1.83
2018-12-04T02:08:15.105Z,2.23
2018-12-04T02:10:43.485Z,2.83
2018-12-04T02:13:11.861Z,1.67
2018-12-04T02:15:40.247Z,2.00
2018-12-04T02:18:08.613Z,4.70
2018-12-04T02:20:36.996Z,1.63
2018-12-04T02:23:05.369Z,2.10
2018-12-04T02:25:33.765Z,5.53
2018-12-04T02:28:02.138Z,1.40
2018-12-04T02:30:30.514Z,2.53
2018-12-04T02:32:58.921Z,1.67
2018-12-04T02:35:27.281Z,1.47
2018-12-04T02:37:55.669Z,2.93
2018-12-04T02:40:24.059Z,4.33
2018-12-04T02:42:52.438Z,0.97
2018-12-04T02:45:20.847Z,4.03
2018-12-04T02:47:49.205Z,1.43
2018-12-04T02:50:17.565Z,2.57
2018-12-04T02:52:45.944Z,5.57
2018-12-04T02:55:14.318Z,2.37
2018-12-04T02:57:42.678Z,2.67
2018-12-04T03:00:11.065Z,2.27
2018-12-04T03:02:39.438Z,5.13
2018-12-04T03:05:07.830Z,3.03
2018-12-04T03:07:36.208Z,3.43
2018-12-04T03:10:05.826Z,2.70
2018-12-04T03:12:34.198Z,3.40
2018-12-04T03:15:02.700Z,5.17
2018-12-04T03:17:31.086Z,5.03
2018-12-04T03:19:59.474Z,2.80
2018-12-04T03:22:27.866Z,2.60
2018-12-04T03:24:56.408Z,1.70
2018-12-04T03:27:24.800Z,5.27
2018-12-04T03:29:53.174Z,5.53
2018-12-04T03:32:21.541Z,2.70
2018-12-04T03:34:49.937Z,3.73
2018-12-04T03:37:18.315Z,2.53
2018-12-04T03:39:46.719Z,5.00
2018-12-04T03:42:15.090Z,1.60
2018-12-04T03:44:43.451Z,4.67
2018-12-04T03:47:11.860Z,1.17
2018-12-04T03:49:40.232Z,4.97
2018-12-04T03:52:08.594Z,4.43
2018-12-04T03:54:36.981Z,3.13
2018-12-04T03:57:05.376Z,4.70
2018-12-04T03:59:33.771Z,2.97
2018-12-04T04:02:02.162Z,4.67
2018-12-04T04:04:30.706Z,6.50
2018-12-04T04:06:59.075Z,4.23
2018-12-04T04:09:27.432Z,3.70
2018-12-04T04:11:55.821Z,4.27
2018-12-04T04:14:24.181Z,6.90
2018-12-04T04:16:52.652Z,6.30
2018-12-04T04:19:21.012Z,2.30
2018-12-04T04:21:49.377Z,5.50
2018-12-04T04:24:17.786Z,4.23
2018-12-04T04:26:46.154Z,3.73
2018-12-04T04:29:14.564Z,4.43
2018-12-04T04:31:42.932Z,5.77
2018-12-04T04:34:11.313Z,7.20
2018-12-04T04:36:39.702Z,5.97
2018-12-04T04:39:08.528Z,3.03
2018-12-04T04:41:36.935Z,4.53
2018-12-04T04:44:05.311Z,3.17
2018-12-04T04:46:33.691Z,5.13
2018-12-04T04:49:02.292Z,3.43
2018-12-04T04:51:30.682Z,8.93
2018-12-04T04:53:59.049Z,4.13
2018-12-04T04:56:27.417Z,3.33
2018-12-04T04:58:55.797Z,5.93
2018-12-04T05:01:24.210Z,5.03
2018-12-04T05:03:52.589Z,3.63
2018-12-04T05:06:20.999Z,5.77
2018-12-04T05:08:49.372Z,4.37
2018-12-04T05:11:17.740Z,5.93
2018-12-04T05:13:46.133Z,4.30
2018-12-04T05:16:14.523Z,3.20
2018-12-04T05:18:42.886Z,3.17
2018-12-04T05:21:11.269Z,6.27
2018-12-04T05:23:39.668Z,5.53
2018-12-04T05:26:08.035Z,3.27
2018-12-04T05:28:36.431Z,3.40
2018-12-04T05:31:04.821Z,3.80
2018-12-04T05:33:33.231Z,4.67
2018-12-04T05:36:01.596Z,5.63
2018-12-04T05:38:29.960Z,4.40
2018-12-04T05:40:58.389Z,3.27
2018-12-04T05:43:26.765Z,3.10
2018-12-04T05:45:55.181Z,1.53
2018-12-04T05:48:23.586Z,3.63
2018-12-04T05:50:51.973Z,5.70
2018-12-04T05:53:31.715Z,2.60
2018-12-04T05:56:00.112Z,2.73
2018-12-04T05:58:28.481Z,1.80
2018-12-04T06:00:56.870Z,1.50
2018-12-04T06:03:25.273Z,2.27
2018-12-04T06:05:53.656Z,3.47
2018-12-04T06:08:22.046Z,2.33
2018-12-04T06:10:50.434Z,1.93
2018-12-04T06:13:18.843Z,3.33
2018-12-04T06:15:47.234Z,2.67
2018-12-04T06:18:15.589Z,4.87
2018-12-04T06:20:43.987Z,5.60
2018-12-04T06:23:12.383Z,1.57
2018-12-04T06:25:40.738Z,2.27
2018-12-04T06:28:09.180Z,3.23
2018-12-04T06:30:37.547Z,6.07
2018-12-04T06:33:05.947Z,1.70
2018-12-04T06:35:34.306Z,3.67
2018-12-04T06:38:02.711Z,2.80
2018-12-04T06:40:31.089Z,1.73
2018-12-04T06:42:59.508Z,2.57
2018-12-04T06:45:27.894Z,3.80
2018-12-04T06:47:56.283Z,2.63
2018-12-04T06:50:24.683Z,1.17
2018-12-04T06:52:53.054Z,2.30
2018-12-04T06:55:21.474Z,1.37
2018-12-04T06:57:54.851Z,4.00
2018-12-04T07:00:23.598Z,1.33
2018-12-04T07:02:52.079Z,1.23
2018-12-04T07:05:20.470Z,1.43
2018-12-04T07:07:48.854Z,2.10
2018-12-04T07:10:17.229Z,2.47
2018-12-04T07:12:45.610Z,4.83
2018-12-04T07:15:14.024Z,1.43
2018-12-04T07:17:42.395Z,3.40
2018-12-04T07:20:10.761Z,2.27
2018-12-04T07:22:39.155Z,2.90
2018-12-04T07:25:07.857Z,3.43
2018-12-04T07:27:36.264Z,4.40
2018-12-04T07:30:06.558Z,1.23
2018-12-04T07:32:38.763Z,1.73
2018-12-04T07:35:06.804Z,1.97
2018-12-04T07:37:35.216Z,1.80
2018-12-04T07:40:03.700Z,2.17
2018-12-04T07:42:32.071Z,1.37
2018-12-04T07:45:00.467Z,2.47
2018-12-04T07:47:28.832Z,4.07
2018-12-04T07:49:57.235Z,10.00
2018-12-04T07:52:25.613Z,25.53
2018-12-04T07:54:54.023Z,4.47
2018-12-04T07:57:22.389Z,2.20
2018-12-04T07:59:50.800Z,3.07
2018-12-04T08:02:19.185Z,2.73
2018-12-04T08:04:47.548Z,4.47
2018-12-04T08:07:15.942Z,8.30
2018-12-04T08:09:44.319Z,3.63
2018-12-04T08:12:12.702Z,3.37
2018-12-04T08:14:41.091Z,3.27
2018-12-04T08:17:09.484Z,3.77
2018-12-04T08:19:37.892Z,4.07
2018-12-04T08:22:06.387Z,9.93
2018-12-04T08:24:34.767Z,5.97
2018-12-04T08:27:03.180Z,24.00
2018-12-04T08:29:31.602Z,6.23
2018-12-04T08:32:00.012Z,8.77
2018-12-04T08:34:28.392Z,3.03
2018-12-04T08:36:56.784Z,6.10
2018-12-04T08:39:25.174Z,4.00
2018-12-04T08:41:53.548Z,6.07
2018-12-04T08:44:21.950Z,10.40
2018-12-04T08:46:50.790Z,2.50
2018-12-04T08:49:19.180Z,2.30
2018-12-04T08:51:47.610Z,1.40
2018-12-04T08:54:15.982Z,3.53
2018-12-04T08:56:44.352Z,2.03
2018-12-04T08:59:12.737Z,6.13
2018-12-04T09:01:41.094Z,4.73
2018-12-04T09:04:09.492Z,7.70
2018-12-04T09:06:37.865Z,7.73
2018-12-04T09:09:09.914Z,15.60
2018-12-04T09:11:38.273Z,4.40
2018-12-04T09:14:06.666Z,3.00
2018-12-04T09:16:35.094Z,2.60
2018-12-04T09:19:03.501Z,2.23
2018-12-04T09:21:31.998Z,3.77
2018-12-04T09:24:00.580Z,4.10
2018-12-04T09:26:29.108Z,2.40
2018-12-04T09:28:57.530Z,2.20
2018-12-04T09:31:26.033Z,4.17
2018-12-04T09:33:54.426Z,17.63
2018-12-04T09:36:22.826Z,8.03
2018-12-04T09:38:51.214Z,3.70
2018-12-04T09:41:19.644Z,12.10
2018-12-04T09:43:48.011Z,7.80
2018-12-04T09:46:16.414Z,6.30
2018-12-04T09:48:44.775Z,3.50
2018-12-04T09:51:13.172Z,2.50
2018-12-04T09:53:41.530Z,2.33
2018-12-04T09:56:09.940Z,2.80
2018-12-04T09:58:38.305Z,2.27
2018-12-04T10:01:06.708Z,3.33
2018-12-04T10:03:35.111Z,4.23
2018-12-04T10:06:03.505Z,1.90
2018-12-04T10:08:31.918Z,3.47
2018-12-04T10:11:00.306Z,5.07
2018-12-04T10:13:28.676Z,5.33
2018-12-04T10:15:57.070Z,4.37
2018-12-04T10:18:25.506Z,2.37
2018-12-04T10:20:54.012Z,3.70
2018-12-04T10:23:22.386Z,3.73
2018-12-04T10:25:51.817Z,4.20
2018-12-04T10:28:20.829Z,2.30
2018-12-04T10:30:54.633Z,5.13
2018-12-04T10:33:23.037Z,1.80
2018-12-04T10:35:51.401Z,3.47
2018-12-04T10:38:19.801Z,1.70
2018-12-04T10:40:48.208Z,2.93
2018-12-04T10:43:16.750Z,2.07
2018-12-04T10:45:45.143Z,3.20
2018-12-04T10:48:13.543Z,2.57
2018-12-04T10:50:41.951Z,4.97
2018-12-04T10:53:10.346Z,3.53
2018-12-04T10:55:38.747Z,5.10
2018-12-04T10:58:07.111Z,2.40
2018-12-04T11:00:38.558Z,3.77
2018-12-04T11:03:13.920Z,2.30
2018-12-04T11:05:42.908Z,3.90
2018-12-04T11:08:11.299Z,3.60
2018-12-04T11:10:39.673Z,4.93
2018-12-04T11:13:08.045Z,2.23
2018-12-04T11:15:36.660Z,1.70
2018-12-04T11:18:05.063Z,1.90
2018-12-04T11:20:33.444Z,2.83
2018-12-04T11:23:01.857Z,4.67
2018-12-04T11:25:30.251Z,3.43
2018-12-04T11:27:58.659Z,3.57
2018-12-04T11:30:27.058Z,3.07
2018-12-04T11:32:55.548Z,3.50
2018-12-04T11:35:23.936Z,3.07
2018-12-04T11:37:52.343Z,5.07
2018-12-04T11:40:20.706Z,2.10
2018-12-04T11:42:49.089Z,3.47
2018-12-04T11:45:17.491Z,6.73
2018-12-04T11:47:45.893Z,3.67
2018-12-04T11:50:14.307Z,2.73
2018-12-04T11:52:42.725Z,3.20
2018-12-04T11:55:11.136Z,3.73
2018-12-04T11:57:39.516Z,2.93
2018-12-04T12:00:16.068Z,3.10
2018-12-04T12:02:44.430Z,2.13
2018-12-04T12:05:12.816Z,2.50
2018-12-04T12:07:41.234Z,4.10
2018-12-04T12:10:09.627Z,3.70
2018-12-04T12:12:37.998Z,4.77
2018-12-04T12:15:06.586Z,4.33
2018-12-04T12:17:34.962Z,3.73
2018-12-04T12:20:03.862Z,5.00
2018-12-04T12:22:32.222Z,3.33
2018-12-04T12:25:00.606Z,3.50
2018-12-04T12:27:29.002Z,3.80
2018-12-04T12:29:57.371Z,3.00
2018-12-04T12:32:25.800Z,4.03
2018-12-04T12:34:54.202Z,1.90
2018-12-04T12:37:22.613Z,3.57
2018-12-04T12:39:51.039Z,3.50
2018-12-04T12:42:19.400Z,2.10
2018-12-04T12:44:47.798Z,2.00
2018-12-04T12:47:16.210Z,2.60
2018-12-04T12:49:44.615Z,2.57
2018-12-04T12:52:13.023Z,4.00
2018-12-04T12:54:41.417Z,4.93
2018-12-04T12:57:09.862Z,2.87
2018-12-04T12:59:38.262Z,4.27
2018-12-04T13:02:06.662Z,4.37
2018-12-04T13:04:35.044Z,1.83
2018-12-04T13:07:03.440Z,3.10
2018-12-04T13:09:31.801Z,1.50
2018-12-04T13:12:00.214Z,1.70
2018-12-04T13:14:28.594Z,2.00
2018-12-04T13:16:56.953Z,3.80
2018-12-04T13:19:25.356Z,5.13
2018-12-04T13:21:53.732Z,2.80
2018-12-04T13:24:22.138Z,3.60
2018-12-04T13:26:50.556Z,4.43
2018-12-04T13:29:18.949Z,3.50
2018-12-04T13:31:47.399Z,5.10
2018-12-04T13:34:15.768Z,3.40
2018-12-04T13:36:44.182Z,4.30
2018-12-04T13:39:12.575Z,7.00
2018-12-04T13:41:40.968Z,4.23
2018-12-04T13:44:09.450Z,3.60
2018-12-04T13:46:37.856Z,4.57
2018-12-04T13:49:06.349Z,5.63
2018-12-04T13:51:34.733Z,9.10
2018-12-04T13:54:03.154Z,12.43
2018-12-04T13:56:31.646Z,5.80
2018-12-04T13:59:00.063Z,4.47
2018-12-04T14:01:28.570Z,7.50
2018-12-04T14:03:57.047Z,5.57
2018-12-04T14:06:25.471Z,4.43
2018-12-04T14:08:53.863Z,5.37
2018-12-04T14:11:22.376Z,6.33
2018-12-04T14:13:50.846Z,6.73
2018-12-04T14:16:19.260Z,5.80
2018-12-04T14:18:47.657Z,4.87
2018-12-04T14:21:16.084Z,5.07
2018-12-04T14:23:44.460Z,5.23
2018-12-04T14:26:12.952Z,5.67
2018-12-04T14:28:41.337Z,6.23
2018-12-04T14:31:09.782Z,5.23
2018-12-04T14:33:38.170Z,5.23
2018-12-04T14:36:06.645Z,6.47
2018-12-04T14:38:35.061Z,4.50
2018-12-04T14:41:03.481Z,3.80
2018-12-04T14:43:31.987Z,8.50
2018-12-04T14:46:00.392Z,5.40
2018-12-04T14:48:28.802Z,5.67
2018-12-04T14:50:57.163Z,5.20
2018-12-04T14:53:25.583Z,5.93
2018-12-04T14:55:53.948Z,5.47
2018-12-04T14:58:22.325Z,6.00
2018-12-04T15:00:50.811Z,3.63
2018-12-04T15:03:19.215Z,3.87
2018-12-04T15:05:47.633Z,5.17
2018-12-04T15:08:16.118Z,7.10
2018-12-04T15:10:44.566Z,8.27
2018-12-04T15:13:13.086Z,10.83
2018-12-04T15:15:41.588Z,6.73
2018-12-04T15:18:09.963Z,4.97
2018-12-04T15:20:38.422Z,8.80
2018-12-04T15:23:07.011Z,6.30
2018-12-04T15:25:35.499Z,7.90
2018-12-04T15:28:03.988Z,5.83
2018-12-04T15:30:32.427Z,8.27
2018-12-04T15:33:00.806Z,8.10
2018-12-04T15:35:29.380Z,6.40
2018-12-04T15:37:57.821Z,6.70
2018-12-04T15:40:26.204Z,4.90
2018-12-04T15:42:54.737Z,7.93
2018-12-04T15:45:23.115Z,6.00
2018-12-04T15:47:51.575Z,8.43
2018-12-04T15:50:20.062Z,13.23
2018-12-04T15:52:48.517Z,8.83
2018-12-04T15:55:17.004Z,7.73
2018-12-04T15:57:45.444Z,7.57
2018-12-04T16:00:13.881Z,10.33
2018-12-04T16:02:42.271Z,11.87
2018-12-04T16:05:11.276Z,8.63
2018-12-04T16:07:39.705Z,12.57
2018-12-04T16:10:11.805Z,17.57
2018-12-04T16:12:40.237Z,11.10
2018-12-04T16:15:08.642Z,9.87
2018-12-04T16:17:37.041Z,6.50
2018-12-04T16:20:06.404Z,9.33
2018-12-04T16:22:34.755Z,12.90
2018-12-04T16:25:03.162Z,14.07
2018-12-04T16:27:31.528Z,11.37
2018-12-04T16:29:59.943Z,14.53
2018-12-04T16:32:28.341Z,14.23
2018-12-04T16:34:56.733Z,11.40
2018-12-04T16:37:25.157Z,11.07
2018-12-04T16:39:54.443Z,8.77
2018-12-04T16:42:22.857Z,7.77
2018-12-04T16:44:51.243Z,10.83
2018-12-04T16:47:19.626Z,10.77
2018-12-04T16:49:48.031Z,11.87
2018-12-04T16:52:16.409Z,11.47
2018-12-04T16:54:44.783Z,7.73
2018-12-04T16:57:13.199Z,7.20
2018-12-04T16:59:41.619Z,3.43
2018-12-04T17:02:10.049Z,9.73
2018-12-04T17:04:38.481Z,10.53
2018-12-04T17:07:06.875Z,9.77
2018-12-04T17:09:35.235Z,8.40
2018-12-04T17:12:03.638Z,7.53
2018-12-04T17:14:32.051Z,7.00
2018-12-04T17:17:00.479Z,8.90
2018-12-04T17:19:28.867Z,14.60
2018-12-04T17:21:57.268Z,11.33
2018-12-04T17:24:25.686Z,7.87
2018-12-04T17:26:54.049Z,6.03
2018-12-04T17:29:22.489Z,9.60
2018-12-04T17:31:50.889Z,7.87
2018-12-04T17:34:19.322Z,5.63
2018-12-04T17:36:47.714Z,5.53
2018-12-04T17:39:16.114Z,9.77
2018-12-04T17:41:44.508Z,13.10
2018-12-04T17:44:12.929Z,8.90
2018-12-04T17:46:41.312Z,12.30
2018-12-04T17:49:09.749Z,10.13
2018-12-04T17:51:38.147Z,10.00
2018-12-04T17:54:06.511Z,9.80
2018-12-04T17:56:34.975Z,11.77
2018-12-04T17:59:03.370Z,10.23
2018-12-04T18:01:31.762Z,9.10
2018-12-04T18:04:00.239Z,6.73
2018-12-04T18:06:28.644Z,5.17
2018-12-04T18:08:57.039Z,5.73
2018-12-04T18:11:25.558Z,6.10
2018-12-04T18:13:54.048Z,7.33
2018-12-04T18:16:22.430Z,10.40
2018-12-04T18:18:50.828Z,9.00
2018-12-04T18:21:19.225Z,10.30
2018-12-04T18:23:47.698Z,9.53
2018-12-04T18:26:16.077Z,9.07
2018-12-04T18:28:44.466Z,9.20
2018-12-04T18:31:12.918Z,12.67
2018-12-04T18:33:41.327Z,8.97
2018-12-04T18:36:09.730Z,7.17
2018-12-04T18:38:38.216Z,8.13
2018-12-04T18:41:06.728Z,6.20
2018-12-04T18:43:35.108Z,7.93
2018-12-04T18:46:03.548Z,7.23
2018-12-04T18:48:31.980Z,11.27
2018-12-04T18:51:00.632Z,7.37
2018-12-04T18:53:28.999Z,8.37
2018-12-04T18:55:57.414Z,7.03
2018-12-04T18:58:25.845Z,5.90
2018-12-04T19:00:54.308Z,6.73
2018-12-04T19:03:22.758Z,6.00
2018-12-04T19:05:51.123Z,7.53
2018-12-04T19:08:24.477Z,8.77
2018-12-04T19:10:52.042Z,6.27
2018-12-04T19:13:20.456Z,8.77
2018-12-04T19:15:48.869Z,4.27
2018-12-04T19:18:17.369Z,13.67
2018-12-04T19:20:45.833Z,4.40
2018-12-04T19:23:14.244Z,6.73
2018-12-04T19:25:42.634Z,9.83
2018-12-04T19:28:11.088Z,8.87
2018-12-04T19:30:39.524Z,7.23
2018-12-04T19:33:07.908Z,7.87
2018-12-04T19:35:36.344Z,10.00
2018-12-04T19:38:04.781Z,5.00
2018-12-04T19:40:33.245Z,4.40
2018-12-04T19:43:01.674Z,9.83
2018-12-04T19:45:30.299Z,7.67
2018-12-04T19:47:58.851Z,6.77
2018-12-04T19:50:27.329Z,5.97
2018-12-04T19:52:55.709Z,8.00
2018-12-04T19:55:24.222Z,9.37
2018-12-04T19:57:52.828Z,6.30
2018-12-04T20:00:21.357Z,7.87
2018-12-04T20:02:49.879Z,6.93
2018-12-04T20:05:18.546Z,5.53
2018-12-04T20:07:46.972Z,8.80
2018-12-04T20:10:15.611Z,6.07
2018-12-04T20:12:44.165Z,7.20
2018-12-04T20:15:12.579Z,6.77
2018-12-04T20:17:40.997Z,10.10
2018-12-04T20:20:09.449Z,8.97
2018-12-04T20:22:37.947Z,12.40
2018-12-04T20:25:07.460Z,24.67
2018-12-04T20:27:35.890Z,22.30
2018-12-04T20:30:05.521Z,25.90
2018-12-04T20:32:34.123Z,18.97
2018-12-04T20:35:02.528Z,22.40
2018-12-04T20:37:30.921Z,18.83
2018-12-04T20:40:18.236Z,34.90
2018-12-04T20:42:46.640Z,42.13
2018-12-04T20:45:15.207Z,59.87
2018-12-04T20:47:43.649Z,61.20
2018-12-04T20:50:12.103Z,53.17
2018-12-04T20:52:40.488Z,31.50
2018-12-04T20:55:09.280Z,27.17
2018-12-04T20:57:37.800Z,23.27
2018-12-04T21:00:09.628Z,18.23
2018-12-04T21:02:38.153Z,22.67
2018-12-04T21:05:06.606Z,14.03
2018-12-04T21:07:35.090Z,13.10
2018-12-04T21:10:22.517Z,12.23
2018-12-04T21:12:51.002Z,17.47
2018-12-04T21:15:19.381Z,15.67
2018-12-04T21:17:47.789Z,15.17
2018-12-04T21:20:16.430Z,12.10
2018-12-04T21:22:44.824Z,14.47
2018-12-04T21:25:13.211Z,11.63
2018-12-04T21:27:47.088Z,13.67
2018-12-04T21:30:20.886Z,10.63
2018-12-04T21:32:54.698Z,12.03
2018-12-04T21:35:28.417Z,13.60
2018-12-04T21:38:02.168Z,26.50
2018-12-04T21:41:39.662Z,48.10
2018-12-04T21:44:13.677Z,23.17
2018-12-04T21:46:47.484Z,13.10
2018-12-04T21:49:15.862Z,14.57
2018-12-04T21:51:44.258Z,10.70
2018-12-04T21:54:12.691Z,10.03
2018-12-04T21:56:41.074Z,17.93
2018-12-04T21:59:09.536Z,17.47
2018-12-04T22:01:37.938Z,18.10
2018-12-04T22:04:06.328Z,17.00
2018-12-04T22:06:34.785Z,19.77
2018-12-04T22:09:04.066Z,24.47
2018-12-04T22:11:32.458Z,18.30
2018-12-04T22:14:00.889Z,26.00
2018-12-04T22:16:29.299Z,19.17
2018-12-04T22:18:57.756Z,17.90
2018-12-04T22:21:26.126Z,18.67
2018-12-04T22:23:54.515Z,13.50
2018-12-04T22:26:22.946Z,20.97
2018-12-04T22:28:51.337Z,17.60
2018-12-04T22:31:19.774Z,21.83
2018-12-04T22:36:46.928Z,15.80
2018-12-04T22:39:15.425Z,15.23
2018-12-04T22:41:43.856Z,17.90
2018-12-04T22:44:12.218Z,13.80
2018-12-04T22:46:40.595Z,16.67
2018-12-04T22:49:21.147Z,15.77
2018-12-04T22:51:49.502Z,10.27
2018-12-04T22:54:17.942Z,13.57
2018-12-04T22:56:54.672Z,18.03
2018-12-04T22:59:23.132Z,18.03
2018-12-04T23:01:51.511Z,12.70
2018-12-04T23:04:31.906Z,15.37
2018-12-04T23:07:00.874Z,17.63
2018-12-04T23:09:34.765Z,19.87
2018-12-04T23:12:03.208Z,12.90
2018-12-04T23:14:37.936Z,36.10
2018-12-04T23:17:06.375Z,26.47
2018-12-04T23:19:34.747Z,26.80
2018-12-04T23:22:03.167Z,32.80
2018-12-04T23:24:37.389Z,40.47
2018-12-04T23:27:05.908Z,32.40
2018-12-04T23:29:38.265Z,19.17
2018-12-04T23:32:16.273Z,97.83
2018-12-04T23:34:44.710Z,165.43
2018-12-04T23:37:13.094Z,74.10
2018-12-04T23:39:41.490Z,26.67
2018-12-04T23:42:15.316Z,172.93
2018-12-04T23:44:43.227Z,32.43
2018-12-04T23:47:11.634Z,37.27
2018-12-04T23:49:40.000Z,59.63
2018-12-04T23:52:14.730Z,55.13
2018-12-04T23:54:43.113Z,39.30
2018-12-04T23:57:11.500Z,61.20
2018-12-04T23:59:45.818Z,47.67
